Terminal Aerodrome Forecast
Issued by NWS

Home | Current Version | Previous Version | Text Only | Print | Product List | Glossary On
Versions: 1 2 3 4 5 6 7 8 9 10 11 12 13 14 15 16 17 18 19 20 21 22 23
000
FTUS45 KBOI 132320
TAFMYL
TAF
KMYL 132320Z 1400/1424 34005KT P6SM FEW090 BKN250
     FM140300 VRB03KT P6SM SCT090 BKN250
     FM141000 VRB03KT P6SM VCSH SCT070 BKN100
     FM141800 VRB03KT P6SM SCT100 BKN200
     FM142200 22009KT P6SM SCT250
      AMD NOT SKED=

USA.gov is the U.S. government's official web portal to all federal, state and local government web resources and services.